Time;durP1;ratioP1;P1;durP2;ratioP2;P2;SDS_P1;SDS_P2;PMS_P1;PMS_P2;Temp;Humidity;BMP_temperature;BMP_pressure;BME280_temperature;BME280_humidity;BME280_pressure;Samples;Min_cycle;Max_cycle;Signal;HPM_P1;HPM_P2
2021/09/25 00:02:06;;;;;;;81.50;17.55;;;;;;;;;;5065213;28;20028;-75
2021/09/25 00:04:33;;;;;;;105.82;20.52;;;;;;;;;;5063014;28;20032;-75
2021/09/25 00:06:58;;;;;;;91.65;18.83;;;;;;;;;;5054662;28;20017;-75
2021/09/25 00:09:23;;;;;;;94.50;18.55;;;;;;;;;;5054187;28;20052;-75
2021/09/25 00:11:49;;;;;;;117.72;19.75;;;;;;;;;;5052419;28;20473;-75
2021/09/25 00:14:14;;;;;;;141.90;19.73;;;;;;;;;;5054107;28;20063;-75
2021/09/25 00:16:39;;;;;;;117.47;18.98;;;;;;;;;;5054404;28;20473;-75
2021/09/25 00:19:04;;;;;;;91.80;17.58;;;;;;;;;;5052768;28;20029;-75
2021/09/25 00:21:30;;;;;;;72.70;14.98;;;;;;;;;;5053780;28;20496;-75
2021/09/25 00:23:56;;;;;;;98.25;17.67;;;;;;;;;;5054100;28;20027;-75
2021/09/25 00:26:22;;;;;;;80.80;16.15;;;;;;;;;;5045676;28;20381;-75
2021/09/25 00:28:47;;;;;;;68.20;15.18;;;;;;;;;;5054188;28;20025;-75
2021/09/25 00:31:13;;;;;;;88.05;15.95;;;;;;;;;;5053607;28;20028;-75
2021/09/25 00:33:38;;;;;;;70.30;15.35;;;;;;;;;;5052764;28;20065;-75
2021/09/25 00:36:04;;;;;;;87.40;18.45;;;;;;;;;;5063331;28;20020;-75
2021/09/25 00:38:29;;;;;;;70.85;14.68;;;;;;;;;;5070011;28;20055;-75
2021/09/25 00:40:55;;;;;;;86.63;16.48;;;;;;;;;;5057144;28;20068;-76
2021/09/25 00:43:20;;;;;;;63.10;13.68;;;;;;;;;;5065829;28;20025;-74
2021/09/25 00:45:45;;;;;;;68.25;14.38;;;;;;;;;;5063895;28;20489;-76
2021/09/25 00:48:11;;;;;;;76.88;14.80;;;;;;;;;;5060073;28;20074;-75
2021/09/25 00:50:36;;;;;;;105.80;18.05;;;;;;;;;;5070019;28;20024;-75
2021/09/25 00:53:02;;;;;;;148.18;21.25;;;;;;;;;;5057758;28;20142;-75
2021/09/25 00:55:27;;;;;;;150.40;22.13;;;;;;;;;;5066086;28;20104;-75
2021/09/25 00:57:56;;;;;;;118.35;19.52;;;;;;;;;;5064598;28;20089;-75
2021/09/25 01:00:22;;;;;;;138.20;21.73;;;;;;;;;;5058223;28;20384;-76
2021/09/25 01:02:48;;;;;;;154.90;23.27;;;;;;;;;;5069942;28;20035;-76
2021/09/25 01:05:17;;;;;;;170.65;25.00;;;;;;;;;;5059021;28;20023;-76
2021/09/25 01:07:42;;;;;;;131.98;24.20;;;;;;;;;;5063661;28;20021;-75
2021/09/25 01:10:08;;;;;;;126.53;24.23;;;;;;;;;;5065550;28;20032;-76
2021/09/25 01:12:33;;;;;;;161.70;24.08;;;;;;;;;;5056438;28;20025;-75
2021/09/25 01:14:59;;;;;;;156.35;23.00;;;;;;;;;;5069573;28;20037;-74
2021/09/25 01:17:24;;;;;;;131.35;20.52;;;;;;;;;;5060497;28;20086;-76
2021/09/25 01:19:49;;;;;;;129.50;20.75;;;;;;;;;;5062668;28;20052;-76
2021/09/25 01:22:15;;;;;;;128.65;20.65;;;;;;;;;;5067168;28;20042;-75
2021/09/25 01:24:40;;;;;;;127.68;20.27;;;;;;;;;;5056641;28;20037;-75
2021/09/25 01:27:06;;;;;;;105.82;18.23;;;;;;;;;;5068531;28;20466;-75
2021/09/25 01:29:32;;;;;;;91.60;18.95;;;;;;;;;;5061434;28;20029;-76
2021/09/25 01:31:57;;;;;;;125.15;20.42;;;;;;;;;;5060891;28;20036;-75
2021/09/25 01:34:23;;;;;;;119.05;19.23;;;;;;;;;;5054821;28;20060;-75
2021/09/25 01:36:50;;;;;;;123.65;18.65;;;;;;;;;;5052576;28;20060;-75
2021/09/25 01:39:15;;;;;;;125.78;19.85;;;;;;;;;;5053180;28;20029;-75
2021/09/25 01:41:40;;;;;;;82.47;17.05;;;;;;;;;;5052910;28;20032;-75
2021/09/25 01:44:06;;;;;;;75.07;15.63;;;;;;;;;;5052936;28;20058;-75
2021/09/25 01:46:31;;;;;;;85.90;16.58;;;;;;;;;;5052394;28;20039;-75
2021/09/25 01:48:56;;;;;;;134.50;18.63;;;;;;;;;;5052604;28;20523;-75
2021/09/25 01:51:21;;;;;;;111.38;16.88;;;;;;;;;;5052987;28;20026;-75
2021/09/25 01:53:47;;;;;;;111.53;18.55;;;;;;;;;;5052612;28;20481;-75
2021/09/25 01:56:14;;;;;;;101.10;17.02;;;;;;;;;;5053076;28;20022;-75
2021/09/25 01:58:40;;;;;;;91.47;15.15;;;;;;;;;;5052644;28;20060;-75
2021/09/25 02:01:06;;;;;;;88.35;15.55;;;;;;;;;;5052158;28;20338;-75
2021/09/25 02:03:41;;;;;;;78.78;15.43;;;;;;;;;;5052860;28;20044;-75
2021/09/25 02:06:07;;;;;;;66.30;15.13;;;;;;;;;;5052927;28;20032;-76
2021/09/25 02:08:33;;;;;;;67.57;15.93;;;;;;;;;;5052902;28;20043;-75
2021/09/25 02:10:59;;;;;;;94.45;16.63;;;;;;;;;;5052463;28;20060;-75
2021/09/25 02:13:24;;;;;;;81.35;16.63;;;;;;;;;;5052773;28;20531;-75
2021/09/25 02:15:50;;;;;;;90.97;15.57;;;;;;;;;;5052844;28;20029;-75
2021/09/25 02:18:15;;;;;;;82.72;16.30;;;;;;;;;;5051778;28;20493;-76
2021/09/25 02:20:40;;;;;;;101.18;16.95;;;;;;;;;;5052319;28;20025;-75
2021/09/25 02:23:06;;;;;;;86.47;15.55;;;;;;;;;;5052007;28;20025;-75
2021/09/25 02:25:31;;;;;;;66.75;15.63;;;;;;;;;;5053574;28;20086;-76
2021/09/25 02:27:56;;;;;;;80.65;16.20;;;;;;;;;;5056295;28;20025;-75
2021/09/25 02:30:22;;;;;;;113.00;18.13;;;;;;;;;;5056165;28;20036;-75
2021/09/25 02:32:47;;;;;;;82.35;15.48;;;;;;;;;;5055863;28;20476;-75
2021/09/25 02:35:14;;;;;;;83.28;15.35;;;;;;;;;;5055736;28;20074;-76
2021/09/25 02:37:39;;;;;;;100.03;17.27;;;;;;;;;;5055977;28;20052;-76
2021/09/25 02:40:05;;;;;;;123.05;18.38;;;;;;;;;;5055964;28;20073;-76
2021/09/25 02:42:30;;;;;;;95.72;16.48;;;;;;;;;;5055858;28;20013;-77
2021/09/25 02:44:55;;;;;;;74.90;15.48;;;;;;;;;;5056115;28;20468;-75
2021/09/25 02:47:21;;;;;;;113.68;18.00;;;;;;;;;;5055340;28;20496;-76
2021/09/25 02:49:46;;;;;;;106.72;17.70;;;;;;;;;;5055766;28;20025;-75
2021/09/25 02:52:11;;;;;;;122.10;19.40;;;;;;;;;;5056140;28;20488;-75
2021/09/25 02:54:37;;;;;;;95.57;18.27;;;;;;;;;;5055630;28;20045;-75
2021/09/25 02:57:02;;;;;;;86.05;18.67;;;;;;;;;;5056174;28;20071;-75
2021/09/25 02:59:27;;;;;;;102.85;17.52;;;;;;;;;;5055614;28;20094;-75
2021/09/25 03:01:53;;;;;;;89.60;15.57;;;;;;;;;;5055125;28;20032;-75
2021/09/25 03:04:18;;;;;;;95.50;17.70;;;;;;;;;;5055894;28;20036;-75
2021/09/25 03:06:44;;;;;;;86.90;17.02;;;;;;;;;;5055731;28;20094;-75
2021/09/25 03:09:09;;;;;;;72.60;16.17;;;;;;;;;;5055522;28;20039;-75
2021/09/25 03:11:34;;;;;;;82.90;15.40;;;;;;;;;;5055019;28;20039;-75
2021/09/25 03:14:00;;;;;;;99.05;16.33;;;;;;;;;;5055600;28;20048;-75
2021/09/25 03:16:26;;;;;;;94.15;15.80;;;;;;;;;;5054912;28;20117;-76
2021/09/25 03:18:51;;;;;;;80.13;15.15;;;;;;;;;;5054682;28;20545;-75
2021/09/25 03:21:16;;;;;;;103.22;15.77;;;;;;;;;;5054754;28;20025;-75
2021/09/25 03:23:42;;;;;;;75.68;14.52;;;;;;;;;;5055151;28;20115;-75
2021/09/25 03:26:07;;;;;;;62.72;14.68;;;;;;;;;;5055450;28;20025;-75
2021/09/25 03:28:32;;;;;;;75.07;15.35;;;;;;;;;;5054559;28;20500;-75
2021/09/25 03:30:57;;;;;;;102.97;16.15;;;;;;;;;;5055084;28;20052;-75
2021/09/25 03:33:23;;;;;;;179.13;18.83;;;;;;;;;;5054873;28;20053;-75
2021/09/25 03:35:48;;;;;;;200.40;20.65;;;;;;;;;;5054724;28;20048;-75
2021/09/25 03:38:17;;;;;;;105.47;17.42;;;;;;;;;;5055070;28;20315;-76
2021/09/25 03:40:42;;;;;;;155.35;18.67;;;;;;;;;;5055034;28;20052;-75
2021/09/25 03:43:08;;;;;;;156.10;19.38;;;;;;;;;;5055125;28;20095;-75
2021/09/25 03:45:33;;;;;;;84.93;15.65;;;;;;;;;;5054669;28;20029;-75
2021/09/25 03:47:59;;;;;;;91.68;15.48;;;;;;;;;;5054555;28;20111;-75
2021/09/25 03:50:25;;;;;;;173.98;19.65;;;;;;;;;;5055026;28;20377;-76
2021/09/25 03:52:50;;;;;;;138.50;18.88;;;;;;;;;;5054572;28;20040;-75
2021/09/25 03:55:15;;;;;;;187.18;19.08;;;;;;;;;;5054650;28;20017;-75
2021/09/25 03:57:40;;;;;;;191.00;19.40;;;;;;;;;;5054372;28;20547;-75
2021/09/25 04:00:06;;;;;;;208.50;21.45;;;;;;;;;;5054364;28;20029;-76
2021/09/25 04:02:31;;;;;;;192.38;20.33;;;;;;;;;;5054212;28;20021;-76
2021/09/25 04:04:57;;;;;;;151.05;18.67;;;;;;;;;;5054646;28;20033;-75
2021/09/25 04:07:22;;;;;;;115.30;16.50;;;;;;;;;;5054489;28;20029;-76
2021/09/25 04:09:47;;;;;;;97.75;16.25;;;;;;;;;;5055041;28;20021;-75
2021/09/25 04:12:12;;;;;;;119.00;17.27;;;;;;;;;;5054510;28;20473;-76
2021/09/25 04:14:38;;;;;;;228.68;23.20;;;;;;;;;;5054096;28;20097;-75
2021/09/25 04:17:03;;;;;;;132.80;18.58;;;;;;;;;;5054084;28;20370;-75
2021/09/25 04:19:28;;;;;;;171.02;19.77;;;;;;;;;;5053053;28;20025;-75
2021/09/25 04:21:54;;;;;;;260.35;22.73;;;;;;;;;;5054141;28;20029;-76
2021/09/25 04:24:19;;;;;;;142.82;18.05;;;;;;;;;;5054178;28;20028;-75
2021/09/25 04:26:44;;;;;;;127.22;19.05;;;;;;;;;;5053967;28;20032;-75
2021/09/25 04:29:09;;;;;;;183.63;20.75;;;;;;;;;;5054152;28;20025;-75
2021/09/25 04:31:35;;;;;;;168.38;21.02;;;;;;;;;;5053345;28;20020;-75
2021/09/25 04:34:01;;;;;;;216.55;22.80;;;;;;;;;;5053902;28;20049;-75
2021/09/25 04:36:27;;;;;;;118.63;17.77;;;;;;;;;;5053934;28;20032;-76
2021/09/25 04:38:52;;;;;;;168.65;20.98;;;;;;;;;;5054072;28;20017;-75
2021/09/25 04:41:17;;;;;;;197.98;21.48;;;;;;;;;;5053873;28;20447;-75
2021/09/25 04:43:43;;;;;;;135.80;18.67;;;;;;;;;;5053523;28;20067;-75
2021/09/25 04:46:08;;;;;;;214.80;21.35;;;;;;;;;;5054017;28;20362;-75
2021/09/25 04:48:33;;;;;;;146.27;18.80;;;;;;;;;;5052433;28;20090;-76
2021/09/25 04:50:58;;;;;;;113.15;17.73;;;;;;;;;;5053623;28;20389;-75
2021/09/25 04:53:24;;;;;;;179.27;19.60;;;;;;;;;;5053667;28;20070;-77
2021/09/25 04:55:49;;;;;;;128.07;18.77;;;;;;;;;;5053306;28;20473;-75
2021/09/25 04:58:14;;;;;;;70.35;14.82;;;;;;;;;;5053241;28;20033;-76
2021/09/25 05:00:40;;;;;;;83.78;16.38;;;;;;;;;;5052572;28;20504;-76
2021/09/25 05:03:05;;;;;;;127.55;18.40;;;;;;;;;;5053432;28;20043;-76
2021/09/25 05:05:30;;;;;;;118.53;18.35;;;;;;;;;;5053577;28;20033;-75
2021/09/25 05:07:56;;;;;;;138.48;18.35;;;;;;;;;;5053688;28;20017;-75
2021/09/25 05:10:21;;;;;;;109.93;16.60;;;;;;;;;;5053474;28;20094;-75
2021/09/25 05:12:46;;;;;;;133.43;18.33;;;;;;;;;;5052569;28;20040;-75
2021/09/25 05:15:12;;;;;;;168.30;19.10;;;;;;;;;;5053067;28;20036;-75
2021/09/25 05:17:37;;;;;;;129.63;17.48;;;;;;;;;;5052522;28;20029;-77
2021/09/25 05:20:03;;;;;;;96.50;16.02;;;;;;;;;;5052939;28;20096;-75
2021/09/25 05:22:28;;;;;;;114.22;17.52;;;;;;;;;;5053313;28;20032;-76
2021/09/25 05:24:54;;;;;;;106.28;15.90;;;;;;;;;;5053086;28;20037;-75
2021/09/25 05:27:19;;;;;;;80.43;15.63;;;;;;;;;;5052797;28;20024;-75
2021/09/25 05:29:44;;;;;;;77.95;16.05;;;;;;;;;;5053202;28;20029;-75
2021/09/25 05:32:09;;;;;;;59.20;14.57;;;;;;;;;;5052928;28;20056;-75
2021/09/25 05:34:35;;;;;;;128.43;17.95;;;;;;;;;;5052642;28;20090;-76
2021/09/25 05:37:00;;;;;;;139.15;18.80;;;;;;;;;;5052757;28;20032;-75
2021/09/25 05:39:25;;;;;;;139.02;19.00;;;;;;;;;;5053247;28;20024;-75
2021/09/25 05:41:51;;;;;;;124.05;18.30;;;;;;;;;;5052929;28;20053;-75
2021/09/25 05:44:17;;;;;;;105.82;18.25;;;;;;;;;;5053115;28;20085;-77
2021/09/25 05:46:42;;;;;;;122.05;17.98;;;;;;;;;;5052927;28;20033;-75
2021/09/25 05:49:07;;;;;;;113.57;18.00;;;;;;;;;;5051988;28;20432;-75
2021/09/25 05:51:32;;;;;;;97.05;15.77;;;;;;;;;;5052542;28;20025;-75
2021/09/25 05:53:58;;;;;;;89.95;15.80;;;;;;;;;;5053016;28;20067;-75
2021/09/25 05:56:23;;;;;;;66.78;14.63;;;;;;;;;;5052461;28;20083;-76
2021/09/25 05:58:48;;;;;;;115.95;17.10;;;;;;;;;;5052407;28;20052;-75
2021/09/25 06:01:13;;;;;;;79.55;15.85;;;;;;;;;;5055350;28;20188;-75
2021/09/25 06:03:39;;;;;;;81.90;14.25;;;;;;;;;;5056457;28;20025;-75
2021/09/25 06:06:04;;;;;;;65.47;14.18;;;;;;;;;;5056612;28;20028;-75
2021/09/25 06:08:29;;;;;;;67.38;15.07;;;;;;;;;;5056715;28;20434;-75
2021/09/25 06:10:54;;;;;;;76.20;14.40;;;;;;;;;;5056669;28;20029;-75
2021/09/25 06:13:20;;;;;;;98.70;16.45;;;;;;;;;;5056380;28;20052;-75
2021/09/25 06:15:45;;;;;;;73.43;14.68;;;;;;;;;;5056959;28;20037;-75
2021/09/25 06:18:12;;;;;;;84.50;15.45;;;;;;;;;;5055721;28;20051;-75
2021/09/25 06:20:38;;;;;;;77.63;14.98;;;;;;;;;;5056009;28;20028;-75
2021/09/25 06:23:03;;;;;;;77.00;14.38;;;;;;;;;;5056856;28;20033;-75
2021/09/25 06:25:28;;;;;;;54.63;13.57;;;;;;;;;;5056129;28;20028;-75
2021/09/25 06:27:53;;;;;;;90.07;15.25;;;;;;;;;;5056144;28;20523;-74
2021/09/25 06:30:19;;;;;;;80.07;14.90;;;;;;;;;;5056007;28;20063;-76
2021/09/25 06:32:45;;;;;;;66.85;13.32;;;;;;;;;;5055873;28;20049;-75
2021/09/25 06:35:11;;;;;;;72.22;14.23;;;;;;;;;;5055843;28;20128;-75
2021/09/25 06:37:36;;;;;;;79.50;15.30;;;;;;;;;;5056059;28;20433;-76
2021/09/25 06:40:02;;;;;;;59.30;13.63;;;;;;;;;;5056363;28;20381;-76
2021/09/25 06:42:27;;;;;;;53.20;13.70;;;;;;;;;;5055803;28;20017;-76
2021/09/25 06:44:52;;;;;;;67.57;14.68;;;;;;;;;;5056074;28;20039;-75
2021/09/25 06:47:18;;;;;;;83.63;15.52;;;;;;;;;;5055552;28;20453;-76
2021/09/25 06:49:43;;;;;;;70.95;14.07;;;;;;;;;;5055211;28;20051;-75
2021/09/25 06:52:10;;;;;;;62.83;14.57;;;;;;;;;;5055932;28;20029;-75
2021/09/25 06:54:37;;;;;;;70.15;14.77;;;;;;;;;;5055655;28;20098;-75
2021/09/25 06:57:03;;;;;;;54.00;13.45;;;;;;;;;;5042293;28;20020;-75
2021/09/25 06:59:28;;;;;;;47.63;12.57;;;;;;;;;;5055727;28;20028;-75
2021/09/25 07:01:53;;;;;;;49.95;11.93;;;;;;;;;;5054747;28;20032;-75
2021/09/25 07:04:18;;;;;;;50.92;13.63;;;;;;;;;;5055263;28;20071;-76
2021/09/25 07:06:44;;;;;;;48.88;13.00;;;;;;;;;;5055943;28;20382;-75
2021/09/25 07:09:09;;;;;;;45.60;12.45;;;;;;;;;;5055255;28;20044;-75
2021/09/25 07:11:35;;;;;;;55.30;13.27;;;;;;;;;;5054765;28;20067;-75
2021/09/25 07:14:01;;;;;;;49.60;13.77;;;;;;;;;;5054758;28;20094;-75
2021/09/25 07:16:26;;;;;;;56.78;15.38;;;;;;;;;;5055007;28;20518;-77
2021/09/25 07:18:51;;;;;;;45.38;13.85;;;;;;;;;;5054245;28;20025;-76
2021/09/25 07:21:17;;;;;;;44.38;13.15;;;;;;;;;;5054383;28;20116;-76
2021/09/25 07:23:42;;;;;;;47.38;13.45;;;;;;;;;;5054465;28;20128;-76
2021/09/25 07:26:07;;;;;;;44.65;13.15;;;;;;;;;;5053805;28;20017;-75
2021/09/25 07:28:35;;;;;;;42.50;13.80;;;;;;;;;;5053975;28;20389;-75
2021/09/25 07:31:01;;;;;;;41.03;13.85;;;;;;;;;;5053825;28;20466;-75
2021/09/25 07:33:27;;;;;;;31.38;12.25;;;;;;;;;;5054144;28;20058;-76
2021/09/25 07:35:52;;;;;;;37.58;13.95;;;;;;;;;;5053907;28;20033;-75
2021/09/25 07:38:18;;;;;;;38.75;13.10;;;;;;;;;;5054488;28;20520;-76
2021/09/25 07:40:43;;;;;;;36.85;13.60;;;;;;;;;;5054306;28;20024;-75
2021/09/25 07:43:08;;;;;;;37.25;13.45;;;;;;;;;;5054239;28;20028;-75
2021/09/25 07:45:34;;;;;;;35.45;11.15;;;;;;;;;;5054667;28;20036;-75
2021/09/25 07:47:59;;;;;;;34.08;11.35;;;;;;;;;;5054337;28;20032;-76
2021/09/25 07:50:25;;;;;;;24.52;10.43;;;;;;;;;;5054421;28;20036;-75
2021/09/25 07:52:55;;;;;;;27.85;9.57;;;;;;;;;;5054671;28;20047;-76
2021/09/25 07:55:21;;;;;;;24.33;9.10;;;;;;;;;;5054855;28;20028;-76
2021/09/25 07:57:46;;;;;;;24.50;9.63;;;;;;;;;;5054479;28;20083;-76
2021/09/25 08:00:12;;;;;;;21.95;9.48;;;;;;;;;;5054399;28;20025;-77
2021/09/25 08:02:38;;;;;;;29.50;10.00;;;;;;;;;;5054037;28;20024;-77
2021/09/25 08:05:03;;;;;;;20.58;8.95;;;;;;;;;;5054725;28;20116;-75
2021/09/25 08:07:29;;;;;;;21.70;9.32;;;;;;;;;;5054320;28;20063;-75
2021/09/25 08:09:54;;;;;;;19.35;8.50;;;;;;;;;;5053443;28;20056;-76
2021/09/25 08:12:20;;;;;;;17.65;8.05;;;;;;;;;;5053995;28;20042;-75
2021/09/25 08:14:45;;;;;;;23.00;9.10;;;;;;;;;;5046000;28;20412;-75
2021/09/25 08:17:10;;;;;;;19.23;8.65;;;;;;;;;;5053726;28;20070;-76
2021/09/25 08:19:36;;;;;;;18.10;7.35;;;;;;;;;;5053651;28;20033;-75
2021/09/25 08:22:01;;;;;;;15.15;7.25;;;;;;;;;;5053457;28;20100;-75
2021/09/25 08:24:26;;;;;;;17.15;8.55;;;;;;;;;;5053628;28;20029;-75
2021/09/25 08:26:52;;;;;;;14.80;7.50;;;;;;;;;;5054258;28;20104;-75
2021/09/25 08:29:17;;;;;;;15.43;8.05;;;;;;;;;;5052478;28;20037;-75
2021/09/25 08:31:42;;;;;;;16.20;6.90;;;;;;;;;;5052477;28;20048;-77
2021/09/25 08:34:07;;;;;;;16.15;7.13;;;;;;;;;;5053401;28;20085;-75
2021/09/25 08:36:33;;;;;;;17.60;7.50;;;;;;;;;;5051629;28;20087;-75
2021/09/25 08:38:58;;;;;;;14.77;7.20;;;;;;;;;;5053687;28;20028;-75
2021/09/25 08:41:24;;;;;;;19.20;6.97;;;;;;;;;;5053453;28;20028;-75
2021/09/25 08:43:50;;;;;;;15.18;7.30;;;;;;;;;;5053248;28;20087;-75
2021/09/25 08:46:15;;;;;;;12.48;6.40;;;;;;;;;;5054740;28;20021;-77
2021/09/25 08:48:40;;;;;;;10.55;6.45;;;;;;;;;;5055439;28;20025;-77
2021/09/25 08:51:07;;;;;;;18.90;7.90;;;;;;;;;;5056383;28;20107;-75
2021/09/25 08:53:32;;;;;;;16.38;7.55;;;;;;;;;;5052828;28;20023;-75
2021/09/25 08:55:58;;;;;;;18.08;7.45;;;;;;;;;;5054031;28;20068;-75
2021/09/25 08:58:23;;;;;;;16.00;7.38;;;;;;;;;;5051297;28;20029;-75
2021/09/25 09:00:49;;;;;;;14.68;7.30;;;;;;;;;;5063222;28;20454;-75
2021/09/25 09:03:15;;;;;;;20.10;9.50;;;;;;;;;;5062014;28;20028;-75
2021/09/25 09:05:40;;;;;;;21.42;10.43;;;;;;;;;;5052642;28;20504;-76
2021/09/25 09:08:06;;;;;;;26.88;12.25;;;;;;;;;;5062157;28;20017;-75
2021/09/25 09:10:34;;;;;;;24.85;12.20;;;;;;;;;;5057780;28;20043;-77
2021/09/25 09:13:00;;;;;;;20.73;11.90;;;;;;;;;;5068201;28;20025;-76
2021/09/25 09:15:38;;;;;;;20.08;10.68;;;;;;;;;;5044975;28;20029;-76
2021/09/25 09:18:10;;;;;;;23.58;12.65;;;;;;;;;;5063380;28;20114;-76
2021/09/25 09:20:37;;;;;;;21.88;10.82;;;;;;;;;;5058130;28;20102;-75
2021/09/25 09:23:13;;;;;;;19.55;9.35;;;;;;;;;;5069406;28;20388;-75
2021/09/25 09:25:39;;;;;;;22.33;10.70;;;;;;;;;;5052991;28;20025;-76
2021/09/25 09:28:10;;;;;;;19.85;11.43;;;;;;;;;;5066703;28;20586;-75
2021/09/25 09:30:35;;;;;;;18.52;9.63;;;;;;;;;;5060347;28;20020;-76
2021/09/25 09:33:00;;;;;;;9.65;6.60;;;;;;;;;;5073081;28;20052;-75
2021/09/25 09:35:26;;;;;;;11.88;5.90;;;;;;;;;;5057894;28;20485;-75
2021/09/25 09:37:55;;;;;;;10.93;5.70;;;;;;;;;;5053125;28;20045;-76
2021/09/25 09:40:20;;;;;;;10.20;5.50;;;;;;;;;;5052907;28;20029;-75
2021/09/25 09:42:47;;;;;;;8.48;6.00;;;;;;;;;;5043286;28;20047;-77
2021/09/25 09:45:26;;;;;;;7.97;4.70;;;;;;;;;;5052409;28;20017;-76
2021/09/25 09:47:51;;;;;;;8.52;4.75;;;;;;;;;;5051341;28;20464;-76
2021/09/25 09:50:16;;;;;;;9.02;4.35;;;;;;;;;;5051305;28;20112;-76
2021/09/25 09:52:42;;;;;;;7.35;4.38;;;;;;;;;;5051984;28;20033;-76
2021/09/25 09:55:08;;;;;;;7.43;4.43;;;;;;;;;;5051728;28;20040;-75
2021/09/25 09:57:34;;;;;;;7.63;5.97;;;;;;;;;;5051640;28;20025;-76
2021/09/25 09:59:59;;;;;;;16.85;7.38;;;;;;;;;;5052448;28;20029;-75
2021/09/25 10:02:25;;;;;;;17.30;11.00;;;;;;;;;;5052594;28;20067;-76
2021/09/25 10:04:50;;;;;;;18.15;10.02;;;;;;;;;;5050267;28;20489;-76
2021/09/25 10:07:15;;;;;;;14.82;11.20;;;;;;;;;;5039534;28;20021;-76
2021/09/25 10:09:41;;;;;;;14.40;10.82;;;;;;;;;;5052930;28;20035;-74
2021/09/25 10:12:07;;;;;;;12.02;8.77;;;;;;;;;;5051711;28;20413;-76
2021/09/25 10:14:34;;;;;;;12.30;7.60;;;;;;;;;;5059957;28;20071;-76
2021/09/25 10:17:00;;;;;;;9.07;5.90;;;;;;;;;;5072936;28;20029;-76
2021/09/25 10:19:30;;;;;;;6.88;4.53;;;;;;;;;;5062720;28;20029;-76
2021/09/25 10:21:57;;;;;;;8.05;4.45;;;;;;;;;;5052834;28;20025;-76
2021/09/25 10:24:23;;;;;;;5.25;3.72;;;;;;;;;;5052181;28;20382;-76
2021/09/25 10:26:48;;;;;;;5.40;3.33;;;;;;;;;;5052816;28;20068;-76
2021/09/25 10:29:18;;;;;;;5.35;3.20;;;;;;;;;;5064624;28;20063;-77
2021/09/25 10:31:44;;;;;;;5.22;2.60;;;;;;;;;;5057811;28;20035;-77
2021/09/25 10:34:09;;;;;;;4.65;2.67;;;;;;;;;;5065728;28;20045;-77
2021/09/25 10:36:37;;;;;;;8.63;3.17;;;;;;;;;;5056095;28;20024;-77
2021/09/25 10:39:23;;;;;;;5.68;2.50;;;;;;;;;;5056391;28;20510;-77
2021/09/25 10:41:49;;;;;;;4.22;2.60;;;;;;;;;;5052590;28;20040;-77
2021/09/25 10:44:27;;;;;;;4.07;2.63;;;;;;;;;;5054684;28;20033;-76
2021/09/25 10:47:02;;;;;;;5.78;2.20;;;;;;;;;;5052687;28;20477;-76
2021/09/25 10:49:38;;;;;;;3.38;2.00;;;;;;;;;;5055402;28;20488;-77
2021/09/25 10:52:04;;;;;;;2.78;1.75;;;;;;;;;;5056188;28;20043;-77
2021/09/25 10:54:29;;;;;;;3.15;1.80;;;;;;;;;;5055920;28;20044;-77
2021/09/25 10:56:57;;;;;;;3.17;1.63;;;;;;;;;;5056078;28;20047;-77
2021/09/25 10:59:22;;;;;;;3.35;1.77;;;;;;;;;;5055852;28;20020;-76
2021/09/25 11:01:53;;;;;;;5.53;1.65;;;;;;;;;;5054925;28;20029;-79
2021/09/25 11:04:18;;;;;;;2.15;1.33;;;;;;;;;;5053590;28;20075;-77
2021/09/25 11:06:57;;;;;;;5.83;1.70;;;;;;;;;;5055575;28;20024;-77
2021/09/25 11:09:33;;;;;;;6.32;1.65;;;;;;;;;;5055246;28;20627;-77
2021/09/25 11:12:02;;;;;;;1.88;1.20;;;;;;;;;;5055504;28;20037;-77
2021/09/25 11:14:28;;;;;;;2.30;1.38;;;;;;;;;;5055640;28;20077;-77
2021/09/25 11:16:55;;;;;;;1.60;0.85;;;;;;;;;;5055939;28;20053;-77
2021/09/25 11:19:20;;;;;;;3.13;0.82;;;;;;;;;;5055125;28;20013;-76
2021/09/25 11:21:45;;;;;;;0.90;0.73;;;;;;;;;;5055014;28;20052;-77
2021/09/25 11:24:11;;;;;;;3.00;1.20;;;;;;;;;;5055617;28;20328;-76
2021/09/25 11:26:38;;;;;;;2.80;1.35;;;;;;;;;;5055406;28;20017;-77
2021/09/25 11:29:10;;;;;;;1.15;0.93;;;;;;;;;;5054805;28;20025;-77
2021/09/25 11:31:36;;;;;;;8.00;2.83;;;;;;;;;;5054915;28;20051;-77
2021/09/25 11:34:01;;;;;;;2.90;1.65;;;;;;;;;;5054873;28;20128;-77
2021/09/25 11:36:30;;;;;;;4.20;1.52;;;;;;;;;;5054246;28;20033;-78
2021/09/25 11:38:55;;;;;;;2.70;1.30;;;;;;;;;;5054891;28;20041;-77
2021/09/25 11:41:21;;;;;;;2.75;1.65;;;;;;;;;;5054336;28;20036;-78
2021/09/25 11:43:56;;;;;;;3.13;1.75;;;;;;;;;;5054691;28;20025;-77
2021/09/25 11:46:21;;;;;;;;;;;;;;;;;;5055626;28;20036;-78
2021/09/25 11:48:46;;;;;;;2.00;1.20;;;;;;;;;;5054910;28;19912;-77
2021/09/25 11:51:11;;;;;;;3.35;1.60;;;;;;;;;;5054421;28;20116;-76
2021/09/25 11:53:37;;;;;;;4.63;1.80;;;;;;;;;;5054041;28;20028;-77
2021/09/25 11:56:02;;;;;;;2.28;1.50;;;;;;;;;;5055158;28;20025;-77
2021/09/25 11:58:27;;;;;;;3.28;2.00;;;;;;;;;;5054740;28;20370;-77
2021/09/25 12:00:57;;;;;;;2.00;1.20;;;;;;;;;;5054886;28;20025;-77
2021/09/25 12:03:24;;;;;;;2.35;1.20;;;;;;;;;;5054803;28;20130;-77
2021/09/25 12:05:51;;;;;;;2.53;1.70;;;;;;;;;;5054752;28;20039;-77
2021/09/25 12:08:18;;;;;;;3.25;1.40;;;;;;;;;;5054701;28;20013;-76
2021/09/25 12:10:53;;;;;;;4.93;1.50;;;;;;;;;;5054690;28;20358;-77
2021/09/25 12:13:21;;;;;;;1.95;1.30;;;;;;;;;;5054663;28;20055;-77
2021/09/25 12:15:48;;;;;;;3.45;1.40;;;;;;;;;;5054553;28;20087;-76
2021/09/25 12:18:15;;;;;;;3.88;1.50;;;;;;;;;;5054607;28;20068;-77
2021/09/25 12:20:41;;;;;;;3.70;1.48;;;;;;;;;;5054706;28;20021;-78
2021/09/25 12:23:07;;;;;;;4.80;1.73;;;;;;;;;;5054565;28;20028;-77
2021/09/25 12:25:33;;;;;;;4.63;1.85;;;;;;;;;;5054402;28;20037;-77
2021/09/25 12:27:59;;;;;;;2.28;1.27;;;;;;;;;;5054374;28;20013;-76
2021/09/25 12:30:24;;;;;;;2.42;1.15;;;;;;;;;;5054290;28;20436;-77
2021/09/25 12:33:02;;;;;;;1.77;1.10;;;;;;;;;;5054229;28;20056;-77
2021/09/25 12:35:28;;;;;;;2.58;1.13;;;;;;;;;;5054148;28;20044;-77
2021/09/25 12:37:53;;;;;;;2.85;1.40;;;;;;;;;;5054065;28;20029;-77
2021/09/25 12:40:19;;;;;;;2.90;1.30;;;;;;;;;;5054318;28;20124;-76
2021/09/25 12:42:44;;;;;;;2.65;1.65;;;;;;;;;;5053975;28;20065;-77
2021/09/25 12:45:11;;;;;;;2.83;1.23;;;;;;;;;;5054050;28;20040;-77
2021/09/25 12:47:37;;;;;;;2.42;1.33;;;;;;;;;;5054204;28;20049;-77
2021/09/25 12:50:16;;;;;;;4.18;1.60;;;;;;;;;;5054021;28;20063;-77
2021/09/25 12:52:41;;;;;;;1.92;0.98;;;;;;;;;;5053796;28;20121;-77
2021/09/25 12:55:08;;;;;;;3.72;1.20;;;;;;;;;;5053645;28;20471;-77
2021/09/25 12:57:33;;;;;;;2.05;1.10;;;;;;;;;;5051236;28;20029;-77
2021/09/25 12:59:59;;;;;;;4.57;1.50;;;;;;;;;;5053802;28;20487;-77
2021/09/25 13:02:27;;;;;;;4.18;1.40;;;;;;;;;;5053503;28;20504;-77
2021/09/25 13:04:54;;;;;;;2.70;1.48;;;;;;;;;;5053351;28;20032;-76
2021/09/25 13:07:28;;;;;;;3.22;1.00;;;;;;;;;;5053754;28;20095;-76
2021/09/25 13:09:56;;;;;;;3.25;1.20;;;;;;;;;;5053262;28;20024;-76
2021/09/25 13:12:31;;;;;;;3.17;1.30;;;;;;;;;;5053771;28;20033;-77
2021/09/25 13:15:13;;;;;;;2.00;1.30;;;;;;;;;;5053526;28;20037;-76
2021/09/25 13:17:40;;;;;;;3.78;1.40;;;;;;;;;;5053504;28;20029;-76
2021/09/25 13:20:06;;;;;;;3.70;1.40;;;;;;;;;;5053624;28;20033;-76
2021/09/25 13:22:32;;;;;;;2.72;1.08;;;;;;;;;;5053527;28;20025;-76
2021/09/25 13:24:59;;;;;;;2.65;1.08;;;;;;;;;;5053515;28;20021;-78
2021/09/25 13:27:25;;;;;;;3.58;1.23;;;;;;;;;;5053462;28;20357;-77
2021/09/25 13:29:52;;;;;;;1.92;1.30;;;;;;;;;;5053251;28;20037;-76
2021/09/25 13:32:18;;;;;;;1.83;1.10;;;;;;;;;;5053176;28;20083;-77
2021/09/25 13:34:43;;;;;;;3.22;1.25;;;;;;;;;;5052430;28;20036;-78
2021/09/25 13:37:09;;;;;;;2.67;1.10;;;;;;;;;;5053106;28;20055;-77
2021/09/25 13:39:34;;;;;;;3.05;1.15;;;;;;;;;;5053109;28;20021;-77
2021/09/25 13:42:00;;;;;;;2.67;1.27;;;;;;;;;;5052783;28;20068;-76
2021/09/25 13:44:25;;;;;;;2.08;1.10;;;;;;;;;;5052268;28;20037;-77
2021/09/25 13:46:50;;;;;;;2.35;1.13;;;;;;;;;;5053070;28;20040;-76
2021/09/25 13:49:17;;;;;;;2.90;1.20;;;;;;;;;;5052577;28;20516;-77
2021/09/25 13:51:42;;;;;;;3.42;1.50;;;;;;;;;;5052953;28;20037;-77
2021/09/25 13:54:07;;;;;;;3.63;1.27;;;;;;;;;;5054286;28;20475;-77
2021/09/25 13:56:33;;;;;;;4.75;1.77;;;;;;;;;;5053190;28;20062;-77
2021/09/25 13:58:58;;;;;;;2.90;1.30;;;;;;;;;;5053070;28;20033;-76
2021/09/25 14:01:24;;;;;;;2.17;1.20;;;;;;;;;;5064983;28;20025;-75
2021/09/25 14:03:49;;;;;;;3.72;1.75;;;;;;;;;;5053063;28;20033;-76
2021/09/25 14:06:15;;;;;;;3.65;1.67;;;;;;;;;;5063689;28;20032;-76
2021/09/25 14:08:44;;;;;;;1.98;1.10;;;;;;;;;;5058014;28;20063;-76
2021/09/25 14:11:09;;;;;;;1.52;0.90;;;;;;;;;;5052946;28;20021;-76
2021/09/25 14:13:38;;;;;;;14.48;2.97;;;;;;;;;;5052812;28;20484;-75
2021/09/25 14:16:04;;;;;;;6.65;1.45;;;;;;;;;;5052908;28;20034;-76
2021/09/25 14:18:29;;;;;;;2.40;1.08;;;;;;;;;;5052255;28;20033;-76